Terminal Aerodrome Forecast
Issued by NWS Nashville, TN

Home | Current Version | Previous Version | Text Only | Print | Product List | Glossary On
Versions: 1 2 3 4 5 6 7 8 9 10 11 12
525
FTUS44 KOHX 241120
TAFBNA
TAF
KBNA 241120Z 2412/2512 27006KT 6SM -SHRA BR OVC035
     FM241400 33006KT 5SM -SHRA OVC015
     FM242000 30009KT P6SM VCSH OVC040
     FM250200 29006KT P6SM BKN050 BKN100=

USA.gov is the U.S. government's official web portal to all federal, state and local government web resources and services.